sensor_id;sensor_type;location;lat;lon;timestamp;pressure;altitude;pressure_sealevel;temperature
15144;BMP180;7672;50.834;6.286;2023-05-19T00:01:24;100626.63;;;12.49
15144;BMP180;7672;50.834;6.286;2023-05-19T00:03:54;100629.16;;;12.46
15144;BMP180;7672;50.834;6.286;2023-05-19T00:06:26;100634.19;;;12.44
15144;BMP180;7672;50.834;6.286;2023-05-19T00:09:00;100633.31;;;12.41
15144;BMP180;7672;50.834;6.286;2023-05-19T00:11:28;100634.97;;;12.39
15144;BMP180;7672;50.834;6.286;2023-05-19T00:13:57;100636.66;;;12.37
15144;BMP180;7672;50.834;6.286;2023-05-19T00:16:26;100631.53;;;12.35
15144;BMP180;7672;50.834;6.286;2023-05-19T00:18:56;100628.16;;;12.32
15144;BMP180;7672;50.834;6.286;2023-05-19T00:21:24;100623.06;;;12.32
15144;BMP180;7672;50.834;6.286;2023-05-19T00:23:51;100626.41;;;12.30
15144;BMP180;7672;50.834;6.286;2023-05-19T00:26:18;100624.69;;;12.27
15144;BMP180;7672;50.834;6.286;2023-05-19T00:28:54;100622.09;;;12.23
15144;BMP180;7672;50.834;6.286;2023-05-19T00:31:21;100629.69;;;12.21
15144;BMP180;7672;50.834;6.286;2023-05-19T00:33:48;100615.25;;;12.14
15144;BMP180;7672;50.834;6.286;2023-05-19T00:36:15;100621.97;;;12.11
15144;BMP180;7672;50.834;6.286;2023-05-19T00:38:42;100621.88;;;12.05
15144;BMP180;7672;50.834;6.286;2023-05-19T00:41:09;100632.81;;;12.01
15144;BMP180;7672;50.834;6.286;2023-05-19T00:43:36;100627.72;;;11.98
15144;BMP180;7672;50.834;6.286;2023-05-19T00:46:03;100627.63;;;11.93
15144;BMP180;7672;50.834;6.286;2023-05-19T00:48:30;100630.16;;;11.90
15144;BMP180;7672;50.834;6.286;2023-05-19T00:50:59;100630.09;;;11.87
15144;BMP180;7672;50.834;6.286;2023-05-19T00:53:32;100617.38;;;11.83
15144;BMP180;7672;50.834;6.286;2023-05-19T00:56:00;100614.78;;;11.80
15144;BMP180;7672;50.834;6.286;2023-05-19T00:58:30;100613.91;;;11.76
15144;BMP180;7672;50.834;6.286;2023-05-19T01:00:59;100621.44;;;11.73
15144;BMP180;7672;50.834;6.286;2023-05-19T01:03:33;100609.56;;;11.70
15144;BMP180;7672;50.834;6.286;2023-05-19T01:06:03;100614.59;;;11.65
15144;BMP180;7672;50.834;6.286;2023-05-19T01:08:36;100621.31;;;11.65
15144;BMP180;7672;50.834;6.286;2023-05-19T01:11:07;100609.44;;;11.61
15144;BMP180;7672;50.834;6.286;2023-05-19T01:13:35;100614.50;;;11.61
15144;BMP180;7672;50.834;6.286;2023-05-19T01:16:11;100609.41;;;11.58
15144;BMP180;7672;50.834;6.286;2023-05-19T01:19:00;100614.47;;;11.56
15144;BMP180;7672;50.834;6.286;2023-05-19T01:30:36;100603.19;;;11.39
15144;BMP180;7672;50.834;6.286;2023-05-19T01:33:11;100603.13;;;11.35
15144;BMP180;7672;50.834;6.286;2023-05-19T01:35:42;100599.78;;;11.36
15144;BMP180;7672;50.834;6.286;2023-05-19T01:38:11;100603.13;;;11.33
15144;BMP180;7672;50.834;6.286;2023-05-19T01:40:41;100592.94;;;11.32
15144;BMP180;7672;50.834;6.286;2023-05-19T01:43:15;100598.00;;;11.30
15144;BMP180;7672;50.834;6.286;2023-05-19T01:45:43;100593.72;;;11.28
15144;BMP180;7672;50.834;6.286;2023-05-19T01:48:12;100596.25;;;11.28
15144;BMP180;7672;50.834;6.286;2023-05-19T01:50:41;100608.91;;;11.26
15144;BMP180;7672;50.834;6.286;2023-05-19T01:53:09;100610.53;;;11.24
15144;BMP180;7672;50.834;6.286;2023-05-19T01:55:49;100597.84;;;11.20
15144;BMP180;7672;50.834;6.286;2023-05-19T01:58:38;100600.28;;;11.15
15144;BMP180;7672;50.834;6.286;2023-05-19T02:01:52;100601.88;;;11.09
15144;BMP180;7672;50.834;6.286;2023-05-19T02:04:42;100599.19;;;11.00
15144;BMP180;7672;50.834;6.286;2023-05-19T02:07:25;100603.28;;;10.94
15144;BMP180;7672;50.834;6.286;2023-05-19T02:10:05;100604.09;;;10.91
15144;BMP180;7672;50.834;6.286;2023-05-19T02:12:39;100604.06;;;10.88
15144;BMP180;7672;50.834;6.286;2023-05-19T02:15:14;100605.69;;;10.86
15144;BMP180;7672;50.834;6.286;2023-05-19T02:17:44;100602.31;;;10.84
15144;BMP180;7672;50.834;6.286;2023-05-19T02:20:17;100605.66;;;10.83
15144;BMP180;7672;50.834;6.286;2023-05-19T02:22:45;100597.19;;;10.81
15144;BMP180;7672;50.834;6.286;2023-05-19T02:25:12;100593.81;;;10.81
15144;BMP180;7672;50.834;6.286;2023-05-19T02:27:40;100602.22;;;10.80
15144;BMP180;7672;50.834;6.286;2023-05-19T02:30:08;100602.19;;;10.78
15144;BMP180;7672;50.834;6.286;2023-05-19T02:32:36;100600.47;;;10.76
15144;BMP180;7672;50.834;6.286;2023-05-19T02:35:03;100594.50;;;10.72
15144;BMP180;7672;50.834;6.286;2023-05-19T02:37:31;100594.47;;;10.71
15144;BMP180;7672;50.834;6.286;2023-05-19T02:39:58;100582.59;;;10.67
15144;BMP180;7672;50.834;6.286;2023-05-19T02:42:25;100583.41;;;10.64
15144;BMP180;7672;50.834;6.286;2023-05-19T02:44:53;100574.91;;;10.62
15144;BMP180;7672;50.834;6.286;2023-05-19T02:47:20;100577.41;;;10.59
15144;BMP180;7672;50.834;6.286;2023-05-19T02:49:48;100571.47;;;10.57
15144;BMP180;7672;50.834;6.286;2023-05-19T02:52:15;100575.66;;;10.55
15144;BMP180;7672;50.834;6.286;2023-05-19T02:54:42;100573.91;;;10.53
15144;BMP180;7672;50.834;6.286;2023-05-19T02:57:09;100568.81;;;10.50
15144;BMP180;7672;50.834;6.286;2023-05-19T02:59:37;100564.59;;;10.50
15144;BMP180;7672;50.834;6.286;2023-05-19T03:02:04;100574.69;;;10.48
15144;BMP180;7672;50.834;6.286;2023-05-19T03:04:31;100576.31;;;10.46
15144;BMP180;7672;50.834;6.286;2023-05-19T03:06:58;100572.03;;;10.42
15144;BMP180;7672;50.834;6.286;2023-05-19T03:09:25;100582.97;;;10.41
15144;BMP180;7672;50.834;6.286;2023-05-19T03:11:52;100584.63;;;10.39
15144;BMP180;7672;50.834;6.286;2023-05-19T03:14:20;100587.06;;;10.36
15144;BMP180;7672;50.834;6.286;2023-05-19T03:16:50;100588.69;;;10.32
15144;BMP180;7672;50.834;6.286;2023-05-19T03:19:17;100588.63;;;10.29
15144;BMP180;7672;50.834;6.286;2023-05-19T03:21:44;100589.47;;;10.30
15144;BMP180;7672;50.834;6.286;2023-05-19T03:24:12;100591.94;;;10.27
15144;BMP180;7672;50.834;6.286;2023-05-19T03:26:39;100589.38;;;10.24
15144;BMP180;7672;50.834;6.286;2023-05-19T03:29:06;100586.84;;;10.24
15144;BMP180;7672;50.834;6.286;2023-05-19T03:31:36;100588.50;;;10.23
15144;BMP180;7672;50.834;6.286;2023-05-19T03:34:04;100585.13;;;10.23
15144;BMP180;7672;50.834;6.286;2023-05-19T03:36:31;100584.31;;;10.22
15144;BMP180;7672;50.834;6.286;2023-05-19T03:38:59;100585.13;;;10.23
15144;BMP180;7672;50.834;6.286;2023-05-19T03:41:26;100584.31;;;10.22
15144;BMP180;7672;50.834;6.286;2023-05-19T03:43:54;100585.13;;;10.23
15144;BMP180;7672;50.834;6.286;2023-05-19T03:46:21;100580.97;;;10.25
15144;BMP180;7672;50.834;6.286;2023-05-19T03:49:12;100585.13;;;10.21
15144;BMP180;7672;50.834;6.286;2023-05-19T03:51:58;100587.63;;;10.20
15144;BMP180;7672;50.834;6.286;2023-05-19T03:54:32;100579.16;;;10.19
15144;BMP180;7672;50.834;6.286;2023-05-19T03:57:00;100582.59;;;10.21
15144;BMP180;7672;50.834;6.286;2023-05-19T03:59:30;100571.66;;;10.22
15144;BMP180;7672;50.834;6.286;2023-05-19T04:01:57;100587.72;;;10.26
15144;BMP180;7672;50.834;6.286;2023-05-19T04:04:25;100580.19;;;10.27
15144;BMP180;7672;50.834;6.286;2023-05-19T04:06:53;100582.75;;;10.30
15144;BMP180;7672;50.834;6.286;2023-05-19T04:09:20;100577.75;;;10.33
15144;BMP180;7672;50.834;6.286;2023-05-19T04:11:49;100589.72;;;10.42
15144;BMP180;7672;50.834;6.286;2023-05-19T04:14:17;100588.16;;;10.48
15144;BMP180;7672;50.834;6.286;2023-05-19T04:16:45;100580.69;;;10.54
15144;BMP180;7672;50.834;6.286;2023-05-19T04:19:12;100591.88;;;10.66
15144;BMP180;7672;50.834;6.286;2023-05-19T04:21:39;100588.72;;;10.78
15144;BMP180;7672;50.834;6.286;2023-05-19T04:24:06;100592.28;;;10.90
15144;BMP180;7672;50.834;6.286;2023-05-19T04:26:34;100594.19;;;11.03
15144;BMP180;7672;50.834;6.286;2023-05-19T04:29:01;100592.75;;;11.17
15144;BMP180;7672;50.834;6.286;2023-05-19T04:31:31;100595.47;;;11.32
15144;BMP180;7672;50.834;6.286;2023-05-19T04:34:01;100593.25;;;11.50
15144;BMP180;7672;50.834;6.286;2023-05-19T04:36:28;100590.94;;;11.66
15144;BMP180;7672;50.834;6.286;2023-05-19T04:38:55;100596.28;;;11.84
15144;BMP180;7672;50.834;6.286;2023-05-19T04:41:29;100590.63;;;12.03
15144;BMP180;7672;50.834;6.286;2023-05-19T04:43:57;100594.22;;;12.23
15144;BMP180;7672;50.834;6.286;2023-05-19T04:46:25;100592.78;;;12.44
15144;BMP180;7672;50.834;6.286;2023-05-19T04:48:54;100596.38;;;12.64
15144;BMP180;7672;50.834;6.286;2023-05-19T04:51:21;100594.88;;;12.85
15144;BMP180;7672;50.834;6.286;2023-05-19T04:53:48;100597.63;;;13.06
15144;BMP180;7672;50.834;6.286;2023-05-19T04:56:17;100603.72;;;13.30
15144;BMP180;7672;50.834;6.286;2023-05-19T04:58:44;100599.66;;;13.52
15144;BMP180;7672;50.834;6.286;2023-05-19T05:01:11;100596.38;;;13.72
15144;BMP180;7672;50.834;6.286;2023-05-19T05:03:40;100589.72;;;13.93
15144;BMP180;7672;50.834;6.286;2023-05-19T05:06:09;100598.31;;;14.15
15144;BMP180;7672;50.834;6.286;2023-05-19T05:08:37;100602.63;;;14.36
15144;BMP180;7672;50.834;6.286;2023-05-19T05:11:06;100594.25;;;14.58
15144;BMP180;7672;50.834;6.286;2023-05-19T05:13:34;100596.78;;;14.79
15144;BMP180;7672;50.834;6.286;2023-05-19T05:16:02;100590.03;;;15.03
15144;BMP180;7672;50.834;6.286;2023-05-19T05:18:33;100590.91;;;15.28
15144;BMP180;7672;50.834;6.286;2023-05-19T05:21:01;100592.56;;;15.49
15144;BMP180;7672;50.834;6.286;2023-05-19T05:23:29;100585.72;;;15.75
15144;BMP180;7672;50.834;6.286;2023-05-19T05:25:57;100594.97;;;16.02
15144;BMP180;7672;50.834;6.286;2023-05-19T05:28:24;100574.47;;;16.25
15144;BMP180;7672;50.834;6.286;2023-05-19T05:30:52;100590.53;;;16.50
15144;BMP180;7672;50.834;6.286;2023-05-19T05:33:20;100581.88;;;16.73
15144;BMP180;7672;50.834;6.286;2023-05-19T05:35:48;100579.19;;;16.92
15144;BMP180;7672;50.834;6.286;2023-05-19T05:38:16;100578.97;;;17.16
15144;BMP180;7672;50.834;6.286;2023-05-19T05:40:43;100577.19;;;17.27
15144;BMP180;7672;50.834;6.286;2023-05-19T05:43:10;100579.66;;;17.39
15144;BMP180;7672;50.834;6.286;2023-05-19T05:45:44;100576.16;;;17.49
15144;BMP180;7672;50.834;6.286;2023-05-19T05:48:12;100579.44;;;17.60
15144;BMP180;7672;50.834;6.286;2023-05-19T05:50:42;100564.78;;;17.75
15144;BMP180;7672;50.834;6.286;2023-05-19T05:53:17;100573.19;;;17.85
15144;BMP180;7672;50.834;6.286;2023-05-19T05:55:47;100561.94;;;17.97
15144;BMP180;7672;50.834;6.286;2023-05-19T05:58:15;100561.72;;;18.14
15144;BMP180;7672;50.834;6.286;2023-05-19T06:00:42;100564.19;;;18.26
15144;BMP180;7672;50.834;6.286;2023-05-19T06:03:10;100575.94;;;18.39
15144;BMP180;7672;50.834;6.286;2023-05-19T06:05:37;100575.75;;;18.52
15144;BMP180;7672;50.834;6.286;2023-05-19T06:08:05;100573.84;;;18.64
15144;BMP180;7672;50.834;6.286;2023-05-19T06:10:32;100566.78;;;18.81
15144;BMP180;7672;50.834;6.286;2023-05-19T06:13:05;100576.78;;;18.98
15144;BMP180;7672;50.834;6.286;2023-05-19T06:15:32;100569.63;;;19.16
15144;BMP180;7672;50.834;6.286;2023-05-19T06:18:03;100566.84;;;19.29
15144;BMP180;7672;50.834;6.286;2023-05-19T06:20:31;100570.03;;;19.43
15144;BMP180;7672;50.834;6.286;2023-05-19T06:22:59;100560.38;;;19.57
15144;BMP180;7672;50.834;6.286;2023-05-19T06:25:28;100566.13;;;19.68
15144;BMP180;7672;50.834;6.286;2023-05-19T06:27:56;100559.09;;;19.78
15144;BMP180;7672;50.834;6.286;2023-05-19T06:30:23;100557.16;;;19.88
15144;BMP180;7672;50.834;6.286;2023-05-19T06:32:59;100559.53;;;20.00
15144;BMP180;7672;50.834;6.286;2023-05-19T06:35:27;100557.56;;;20.11
15144;BMP180;7672;50.834;6.286;2023-05-19T06:37:54;100560.75;;;20.22
15144;BMP180;7672;50.834;6.286;2023-05-19T06:40:22;100562.13;;;20.37
15144;BMP180;7672;50.834;6.286;2023-05-19T06:42:49;100563.59;;;20.48
15144;BMP180;7672;50.834;6.286;2023-05-19T06:45:52;100570.16;;;20.61
15144;BMP180;7672;50.834;6.286;2023-05-19T06:48:20;100563.03;;;20.72
15144;BMP180;7672;50.834;6.286;2023-05-19T06:50:47;100556.88;;;20.80
15144;BMP180;7672;50.834;6.286;2023-05-19T06:53:19;100566.91;;;20.91
15144;BMP180;7672;50.834;6.286;2023-05-19T06:55:47;100568.50;;;20.96
15144;BMP180;7672;50.834;6.286;2023-05-19T06:58:27;100570.94;;;21.01
15144;BMP180;7672;50.834;6.286;2023-05-19T07:00:55;100583.69;;;21.05
15144;BMP180;7672;50.834;6.286;2023-05-19T07:03:26;100573.25;;;21.11
15144;BMP180;7672;50.834;6.286;2023-05-19T07:05:54;100574.69;;;21.21
15144;BMP180;7672;50.834;6.286;2023-05-19T07:08:21;100563.34;;;21.29
15144;BMP180;7672;50.834;6.286;2023-05-19T07:10:48;100577.63;;;21.41
15144;BMP180;7672;50.834;6.286;2023-05-19T07:13:16;100574.75;;;21.53
15144;BMP180;7672;50.834;6.286;2023-05-19T07:15:43;100574.34;;;21.68
15144;BMP180;7672;50.834;6.286;2023-05-19T07:18:11;100572.88;;;21.89
15144;BMP180;7672;50.834;6.286;2023-05-19T07:20:38;100570.41;;;22.15
15144;BMP180;7672;50.834;6.286;2023-05-19T07:23:08;100573.78;;;22.46
15144;BMP180;7672;50.834;6.286;2023-05-19T07:25:35;100565.13;;;22.76
15144;BMP180;7672;50.834;6.286;2023-05-19T07:28:03;100570.81;;;23.12
15144;BMP180;7672;50.834;6.286;2023-05-19T07:30:30;100568.63;;;23.51
15144;BMP180;7672;50.834;6.286;2023-05-19T07:32:57;100565.50;;;23.90
15144;BMP180;7672;50.834;6.286;2023-05-19T07:35:25;100562.81;;;24.38
15144;BMP180;7672;50.834;6.286;2023-05-19T07:37:52;100561.63;;;24.90
15144;BMP180;7672;50.834;6.286;2023-05-19T07:40:19;100555.34;;;25.36
15144;BMP180;7672;50.834;6.286;2023-05-19T07:42:49;100559.41;;;25.81
15144;BMP180;7672;50.834;6.286;2023-05-19T07:45:16;100557.19;;;26.29
15144;BMP180;7672;50.834;6.286;2023-05-19T07:47:43;100558.97;;;26.82
15144;BMP180;7672;50.834;6.286;2023-05-19T07:50:10;100550.84;;;27.40
15144;BMP180;7672;50.834;6.286;2023-05-19T07:52:37;100553.97;;;27.96
15144;BMP180;7672;50.834;6.286;2023-05-19T07:55:05;100554.78;;;28.44
15144;BMP180;7672;50.834;6.286;2023-05-19T07:57:32;100558.09;;;28.92
15144;BMP180;7672;50.834;6.286;2023-05-19T07:59:59;100554.16;;;29.43
15144;BMP180;7672;50.834;6.286;2023-05-19T08:02:26;100558.78;;;29.96
15144;BMP180;7672;50.834;6.286;2023-05-19T08:04:53;100552.66;;;30.37
15144;BMP180;7672;50.834;6.286;2023-05-19T08:07:20;100547.53;;;30.75
15144;BMP180;7672;50.834;6.286;2023-05-19T08:09:47;100545.69;;;31.16
15144;BMP180;7672;50.834;6.286;2023-05-19T08:12:14;100541.16;;;31.57
15144;BMP180;7672;50.834;6.286;2023-05-19T08:14:41;100546.56;;;32.03
15144;BMP180;7672;50.834;6.286;2023-05-19T08:17:08;100547.44;;;32.51
15144;BMP180;7672;50.834;6.286;2023-05-19T08:19:35;100553.25;;;32.90
15144;BMP180;7672;50.834;6.286;2023-05-19T08:22:03;100546.47;;;33.22
15144;BMP180;7672;50.834;6.286;2023-05-19T08:24:30;100551.19;;;33.51
15144;BMP180;7672;50.834;6.286;2023-05-19T08:26:59;100545.03;;;33.85
15144;BMP180;7672;50.834;6.286;2023-05-19T08:29:26;100548.00;;;34.13
15144;BMP180;7672;50.834;6.286;2023-05-19T08:31:53;100541.41;;;34.40
15144;BMP180;7672;50.834;6.286;2023-05-19T08:34:21;100539.72;;;34.61
15144;BMP180;7672;50.834;6.286;2023-05-19T08:36:48;100542.38;;;34.81
15144;BMP180;7672;50.834;6.286;2023-05-19T08:39:15;100545.06;;;35.22
15144;BMP180;7672;50.834;6.286;2023-05-19T08:41:44;100536.78;;;35.47
15144;BMP180;7672;50.834;6.286;2023-05-19T08:44:11;100533.00;;;35.60
15144;BMP180;7672;50.834;6.286;2023-05-19T08:46:38;100540.75;;;35.62
15144;BMP180;7672;50.834;6.286;2023-05-19T08:49:13;100527.44;;;35.54
15144;BMP180;7672;50.834;6.286;2023-05-19T08:51:56;100529.53;;;35.60
15144;BMP180;7672;50.834;6.286;2023-05-19T08:54:34;100527.81;;;35.79
15144;BMP180;7672;50.834;6.286;2023-05-19T08:57:04;100531.03;;;36.22
15144;BMP180;7672;50.834;6.286;2023-05-19T08:59:33;100523.91;;;36.61
15144;BMP180;7672;50.834;6.286;2023-05-19T09:02:02;100531.97;;;36.98
15144;BMP180;7672;50.834;6.286;2023-05-19T09:04:30;100528.19;;;37.19
15144;BMP180;7672;50.834;6.286;2023-05-19T09:06:58;100534.97;;;37.40
15144;BMP180;7672;50.834;6.286;2023-05-19T09:09:29;100518.09;;;37.60
15144;BMP180;7672;50.834;6.286;2023-05-19T09:11:57;100515.06;;;37.91
15144;BMP180;7672;50.834;6.286;2023-05-19T09:14:24;100517.84;;;37.90
15144;BMP180;7672;50.834;6.286;2023-05-19T09:16:51;100518.38;;;37.57
15144;BMP180;7672;50.834;6.286;2023-05-19T09:19:19;100512.63;;;37.35
15144;BMP180;7672;50.834;6.286;2023-05-19T09:22:00;100525.56;;;37.28
15144;BMP180;7672;50.834;6.286;2023-05-19T09:24:32;100507.78;;;37.21
15144;BMP180;7672;50.834;6.286;2023-05-19T09:26:59;100519.03;;;36.95
15144;BMP180;7672;50.834;6.286;2023-05-19T09:29:28;100500.19;;;36.71
15144;BMP180;7672;50.834;6.286;2023-05-19T09:31:55;100510.88;;;36.60
15144;BMP180;7672;50.834;6.286;2023-05-19T09:34:27;100501.16;;;36.70
15144;BMP180;7672;50.834;6.286;2023-05-19T09:36:54;100489.22;;;37.04
15144;BMP180;7672;50.834;6.286;2023-05-19T09:39:22;100492.63;;;37.42
15144;BMP180;7672;50.834;6.286;2023-05-19T09:41:54;100485.59;;;37.60
15144;BMP180;7672;50.834;6.286;2023-05-19T09:44:23;100490.50;;;37.91
15144;BMP180;7672;50.834;6.286;2023-05-19T09:46:55;100492.50;;;38.24
15144;BMP180;7672;50.834;6.286;2023-05-19T09:49:28;100489.81;;;38.50
15144;BMP180;7672;50.834;6.286;2023-05-19T09:51:57;100486.63;;;38.82
15144;BMP180;7672;50.834;6.286;2023-05-19T09:54:25;100489.81;;;38.85
15144;BMP180;7672;50.834;6.286;2023-05-19T09:56:59;100487.47;;;38.47
15144;BMP180;7672;50.834;6.286;2023-05-19T09:59:28;100479.38;;;38.14
15144;BMP180;7672;50.834;6.286;2023-05-19T10:02:00;100483.78;;;37.96
15144;BMP180;7672;50.834;6.286;2023-05-19T10:04:29;100484.56;;;38.06
15144;BMP180;7672;50.834;6.286;2023-05-19T10:06:58;100482.66;;;37.99
15144;BMP180;7672;50.834;6.286;2023-05-19T10:09:27;100490.09;;;37.86
15144;BMP180;7672;50.834;6.286;2023-05-19T10:11:57;100482.13;;;37.59
15144;BMP180;7672;50.834;6.286;2023-05-19T10:14:27;100478.41;;;37.52
15144;BMP180;7672;50.834;6.286;2023-05-19T10:16:56;100480.34;;;37.50
15144;BMP180;7672;50.834;6.286;2023-05-19T10:19:26;100482.31;;;37.48
15144;BMP180;7672;50.834;6.286;2023-05-19T10:21:54;100482.97;;;37.60
15144;BMP180;7672;50.834;6.286;2023-05-19T10:24:22;100484.31;;;37.73
15144;BMP180;7672;50.834;6.286;2023-05-19T10:27:09;100475.78;;;37.52
15144;BMP180;7672;50.834;6.286;2023-05-19T10:29:46;100470.03;;;37.30
15144;BMP180;7672;50.834;6.286;2023-05-19T10:32:24;100471.03;;;37.10
15144;BMP180;7672;50.834;6.286;2023-05-19T10:38:52;100460.81;;;36.60
15144;BMP180;7672;50.834;6.286;2023-05-19T10:45:12;100456.94;;;36.36
15144;BMP180;7672;50.834;6.286;2023-05-19T10:47:41;100454.31;;;36.54
15144;BMP180;7672;50.834;6.286;2023-05-19T10:50:09;100461.22;;;36.65
15144;BMP180;7672;50.834;6.286;2023-05-19T10:52:38;100458.03;;;36.61
15144;BMP180;7672;50.834;6.286;2023-05-19T10:55:11;100448.50;;;36.51
15144;BMP180;7672;50.834;6.286;2023-05-19T10:57:53;100453.19;;;36.47
15144;BMP180;7672;50.834;6.286;2023-05-19T11:00:30;100453.19;;;36.66
15144;BMP180;7672;50.834;6.286;2023-05-19T11:05:40;100446.47;;;37.09
15144;BMP180;7672;50.834;6.286;2023-05-19T11:08:11;100445.72;;;36.52
15144;BMP180;7672;50.834;6.286;2023-05-19T11:10:42;100437.00;;;35.16
15144;BMP180;7672;50.834;6.286;2023-05-19T11:13:18;100442.47;;;34.52
15144;BMP180;7672;50.834;6.286;2023-05-19T11:15:48;100442.41;;;34.31
15144;BMP180;7672;50.834;6.286;2023-05-19T11:18:16;100434.22;;;34.25
15144;BMP180;7672;50.834;6.286;2023-05-19T11:20:55;100439.84;;;33.98
15144;BMP180;7672;50.834;6.286;2023-05-19T11:23:26;100442.31;;;33.58
15144;BMP180;7672;50.834;6.286;2023-05-19T11:25:53;100442.13;;;33.16
15144;BMP180;7672;50.834;6.286;2023-05-19T11:28:22;100443.22;;;32.79
15144;BMP180;7672;50.834;6.286;2023-05-19T11:30:56;100434.53;;;32.44
15144;BMP180;7672;50.834;6.286;2023-05-19T11:33:25;100444.22;;;32.08
15144;BMP180;7672;50.834;6.286;2023-05-19T11:35:55;100432.59;;;31.64
15144;BMP180;7672;50.834;6.286;2023-05-19T11:38:27;100444.03;;;31.13
15144;BMP180;7672;50.834;6.286;2023-05-19T11:40:56;100441.94;;;30.55
15144;BMP180;7672;50.834;6.286;2023-05-19T11:43:24;100436.31;;;30.08
15144;BMP180;7672;50.834;6.286;2023-05-19T11:45:54;100436.75;;;29.60
15144;BMP180;7672;50.834;6.286;2023-05-19T11:48:22;100420.09;;;29.21
15144;BMP180;7672;50.834;6.286;2023-05-19T11:50:50;100425.25;;;28.93
15144;BMP180;7672;50.834;6.286;2023-05-19T11:53:18;100429.91;;;28.59
15144;BMP180;7672;50.834;6.286;2023-05-19T11:55:47;100426.41;;;28.15
15144;BMP180;7672;50.834;6.286;2023-05-19T11:58:15;100415.75;;;27.74
15144;BMP180;7672;50.834;6.286;2023-05-19T12:00:44;100413.75;;;27.46
15144;BMP180;7672;50.834;6.286;2023-05-19T12:03:14;100415.97;;;27.22
15144;BMP180;7672;50.834;6.286;2023-05-19T12:05:47;100408.69;;;26.96
15144;BMP180;7672;50.834;6.286;2023-05-19T12:08:18;100410.66;;;26.74
15144;BMP180;7672;50.834;6.286;2023-05-19T12:10:48;100402.94;;;26.56
15144;BMP180;7672;50.834;6.286;2023-05-19T12:13:16;100394.25;;;26.40
15144;BMP180;7672;50.834;6.286;2023-05-19T12:15:44;100392.19;;;26.29
15144;BMP180;7672;50.834;6.286;2023-05-19T12:18:12;100391.47;;;26.26
15144;BMP180;7672;50.834;6.286;2023-05-19T12:20:39;100390.56;;;26.27
15144;BMP180;7672;50.834;6.286;2023-05-19T12:23:06;100397.47;;;26.26
15144;BMP180;7672;50.834;6.286;2023-05-19T12:25:34;100390.22;;;26.16
15144;BMP180;7672;50.834;6.286;2023-05-19T12:28:01;100390.22;;;25.99
15144;BMP180;7672;50.834;6.286;2023-05-19T12:30:31;100385.94;;;25.80
15144;BMP180;7672;50.834;6.286;2023-05-19T12:33:00;100382.00;;;25.73
15144;BMP180;7672;50.834;6.286;2023-05-19T12:35:31;100387.00;;;25.76
15144;BMP180;7672;50.834;6.286;2023-05-19T12:38:13;100386.81;;;25.80
15144;BMP180;7672;50.834;6.286;2023-05-19T12:40:41;100380.41;;;25.69
15144;BMP180;7672;50.834;6.286;2023-05-19T12:43:21;100365.59;;;25.54
15144;BMP180;7672;50.834;6.286;2023-05-19T12:45:48;100369.22;;;25.50
15144;BMP180;7672;50.834;6.286;2023-05-19T12:48:15;100376.94;;;25.52
15144;BMP180;7672;50.834;6.286;2023-05-19T12:50:43;100369.50;;;25.44
15144;BMP180;7672;50.834;6.286;2023-05-19T12:53:11;100364.75;;;25.35
15144;BMP180;7672;50.834;6.286;2023-05-19T12:55:40;100369.13;;;25.33
15144;BMP180;7672;50.834;6.286;2023-05-19T12:58:11;100368.94;;;25.38
15144;BMP180;7672;50.834;6.286;2023-05-19T13:00:45;100361.97;;;25.40
15144;BMP180;7672;50.834;6.286;2023-05-19T13:03:18;100363.84;;;25.36
15144;BMP180;7672;50.834;6.286;2023-05-19T13:05:49;100366.34;;;25.38
15144;BMP180;7672;50.834;6.286;2023-05-19T13:08:21;100366.22;;;25.41
15144;BMP180;7672;50.834;6.286;2023-05-19T13:10:50;100366.75;;;25.47
15144;BMP180;7672;50.834;6.286;2023-05-19T13:13:36;100359.56;;;25.53
15144;BMP180;7672;50.834;6.286;2023-05-19T13:16:22;100356.69;;;25.59
15144;BMP180;7672;50.834;6.286;2023-05-19T13:19:07;100353.91;;;25.64
15144;BMP180;7672;50.834;6.286;2023-05-19T13:21:50;100347.75;;;25.66
15144;BMP180;7672;50.834;6.286;2023-05-19T13:24:17;100345.66;;;25.74
15144;BMP180;7672;50.834;6.286;2023-05-19T13:26:44;100351.19;;;25.85
15144;BMP180;7672;50.834;6.286;2023-05-19T13:29:11;100333.72;;;25.89
15144;BMP180;7672;50.834;6.286;2023-05-19T13:31:38;100339.59;;;25.92
15144;BMP180;7672;50.834;6.286;2023-05-19T13:34:06;100346.75;;;25.87
15144;BMP180;7672;50.834;6.286;2023-05-19T13:36:33;100339.41;;;25.78
15144;BMP180;7672;50.834;6.286;2023-05-19T13:39:00;100346.34;;;25.78
15144;BMP180;7672;50.834;6.286;2023-05-19T13:41:28;100344.22;;;25.86
15144;BMP180;7672;50.834;6.286;2023-05-19T13:43:58;100337.00;;;25.92
15144;BMP180;7672;50.834;6.286;2023-05-19T13:46:25;100329.69;;;26.00
15144;BMP180;7672;50.834;6.286;2023-05-19T13:49:10;100332.91;;;26.05
15144;BMP180;7672;50.834;6.286;2023-05-19T13:51:41;100341.84;;;26.17
15144;BMP180;7672;50.834;6.286;2023-05-19T13:54:09;100334.59;;;26.23
15144;BMP180;7672;50.834;6.286;2023-05-19T13:56:36;100333.56;;;26.27
15144;BMP180;7672;50.834;6.286;2023-05-19T14:01:30;100318.84;;;26.44
15144;BMP180;7672;50.834;6.286;2023-05-19T14:03:58;100318.72;;;26.47
15144;BMP180;7672;50.834;6.286;2023-05-19T14:06:29;100315.44;;;26.44
15144;BMP180;7672;50.834;6.286;2023-05-19T14:08:56;100322.03;;;26.32
15144;BMP180;7672;50.834;6.286;2023-05-19T14:11:23;100325.16;;;26.22
15144;BMP180;7672;50.834;6.286;2023-05-19T14:13:50;100320.56;;;26.10
15144;BMP180;7672;50.834;6.286;2023-05-19T14:16:19;100319.03;;;26.06
15144;BMP180;7672;50.834;6.286;2023-05-19T14:18:48;100316.28;;;26.09
15144;BMP180;7672;50.834;6.286;2023-05-19T14:21:15;100307.84;;;26.06
15144;BMP180;7672;50.834;6.286;2023-05-19T14:23:42;100313.53;;;25.95
15144;BMP180;7672;50.834;6.286;2023-05-19T14:26:12;100304.59;;;25.84
15144;BMP180;7672;50.834;6.286;2023-05-19T14:28:39;100301.72;;;25.73
15144;BMP180;7672;50.834;6.286;2023-05-19T14:31:13;100302.78;;;25.67
15144;BMP180;7672;50.834;6.286;2023-05-19T14:33:41;100297.03;;;25.62
15144;BMP180;7672;50.834;6.286;2023-05-19T14:36:08;100311.06;;;25.57
15144;BMP180;7672;50.834;6.286;2023-05-19T14:38:38;100312.41;;;25.47
15144;BMP180;7672;50.834;6.286;2023-05-19T14:41:05;100306.69;;;25.41
15144;BMP180;7672;50.834;6.286;2023-05-19T14:43:33;100299.97;;;25.37
15144;BMP180;7672;50.834;6.286;2023-05-19T14:46:00;100306.84;;;25.38